createdAt,value
2023-02-26T00:01:51.731Z,99680.17
2023-02-26T00:04:20.509Z,99678.61
2023-02-26T00:06:57.531Z,99672.97
2023-02-26T00:09:28.335Z,99668.23
2023-02-26T00:11:58.454Z,99656.92
2023-02-26T00:14:27.446Z,99655.77
2023-02-26T00:17:09.030Z,99660.29
2023-02-26T00:19:38.032Z,99655.97
2023-02-26T00:22:07.025Z,99652.08
2023-02-26T00:24:35.815Z,99652.69
2023-02-26T00:27:04.295Z,99652.95
2023-02-26T00:29:33.693Z,99655.89
2023-02-26T00:32:02.956Z,99645.80
2023-02-26T00:34:32.234Z,99637.84
2023-02-26T00:37:03.809Z,99630.85
2023-02-26T00:39:48.111Z,99629.31
2023-02-26T00:42:18.534Z,99628.02
2023-02-26T00:44:47.739Z,99630.83
2023-02-26T00:47:28.301Z,99632.38
2023-02-26T00:50:16.247Z,99618.95
2023-02-26T00:53:01.108Z,99616.61
2023-02-26T00:55:30.526Z,99611.05
2023-02-26T00:57:59.402Z,99613.00
2023-02-26T01:00:28.499Z,99609.48
2023-02-26T01:02:58.969Z,99609.64
2023-02-26T01:05:28.602Z,99601.85
2023-02-26T01:08:13.606Z,99594.27
2023-02-26T01:10:43.826Z,99592.35
2023-02-26T01:13:13.032Z,99589.29
2023-02-26T01:15:47.984Z,99591.30
2023-02-26T01:18:27.090Z,99583.67
2023-02-26T01:21:05.505Z,99583.75
2023-02-26T01:23:43.667Z,99584.17
2023-02-26T01:26:24.181Z,99575.23
2023-02-26T01:28:54.167Z,99586.70
2023-02-26T01:31:35.151Z,99589.41
2023-02-26T01:34:11.235Z,99586.98
2023-02-26T01:36:50.670Z,99589.95
2023-02-26T01:40:01.654Z,99585.98
2023-02-26T01:42:38.561Z,99589.87
2023-02-26T01:45:20.898Z,99589.71
2023-02-26T01:47:55.794Z,99585.58
2023-02-26T01:50:30.070Z,99583.52
2023-02-26T01:53:21.002Z,99583.40
2023-02-26T01:56:03.316Z,99590.74
2023-02-26T01:58:36.095Z,99589.11
2023-02-26T02:01:06.605Z,99591.48
2023-02-26T02:03:39.098Z,99588.77
2023-02-26T02:06:18.389Z,99581.02
2023-02-26T02:08:47.733Z,99565.33
2023-02-26T02:11:16.913Z,99567.80
2023-02-26T02:14:12.859Z,99574.02
2023-02-26T02:16:49.051Z,99589.15
2023-02-26T02:19:55.898Z,99593.33
2023-02-26T02:23:02.996Z,99600.70
2023-02-26T02:25:50.411Z,99600.05
2023-02-26T02:28:34.583Z,99601.60
2023-02-26T02:31:27.317Z,99603.88
2023-02-26T02:34:06.955Z,99604.11
2023-02-26T02:37:11.381Z,99603.40
2023-02-26T02:40:08.022Z,99604.14
2023-02-26T02:43:04.668Z,99607.09
2023-02-26T02:45:45.514Z,99603.45
2023-02-26T02:48:39.416Z,99589.56
2023-02-26T02:51:25.850Z,99594.52
2023-02-26T02:54:12.225Z,99586.48
2023-02-26T02:56:49.616Z,99584.14
2023-02-26T02:59:32.635Z,99582.13
2023-02-26T03:02:12.178Z,99588.45
2023-02-26T03:04:42.814Z,99581.48
2023-02-26T03:07:11.806Z,99580.03
2023-02-26T03:09:40.905Z,99578.44
2023-02-26T03:12:10.173Z,99576.92
2023-02-26T03:14:40.938Z,99578.85
2023-02-26T03:17:36.431Z,99577.86
2023-02-26T03:20:21.129Z,99584.42
2023-02-26T03:23:05.339Z,99588.98
2023-02-26T03:25:41.741Z,99593.65
2023-02-26T03:28:26.096Z,99589.92
2023-02-26T03:31:34.141Z,99587.63
2023-02-26T03:34:10.984Z,99593.60
2023-02-26T03:36:54.828Z,99594.06
2023-02-26T03:39:32.490Z,99595.01
2023-02-26T03:42:10.492Z,99598.83
2023-02-26T03:45:00.691Z,99592.31
2023-02-26T03:47:30.955Z,99593.14
2023-02-26T03:50:20.829Z,99593.63
2023-02-26T03:52:54.889Z,99591.02
2023-02-26T03:55:53.323Z,99596.33
2023-02-26T03:58:31.343Z,99593.45
2023-02-26T04:02:13.149Z,99585.29
2023-02-26T04:04:57.154Z,99581.35
2023-02-26T04:07:26.471Z,99578.48
2023-02-26T04:09:55.242Z,99572.86
2023-02-26T04:12:28.263Z,99571.46
2023-02-26T04:14:57.876Z,99570.56
2023-02-26T04:17:26.863Z,99568.96
2023-02-26T04:19:55.656Z,99567.60
2023-02-26T04:22:24.954Z,99568.00
2023-02-26T04:24:54.049Z,99571.23
2023-02-26T04:27:22.741Z,99574.56
2023-02-26T04:29:51.531Z,99575.51
2023-02-26T04:32:20.574Z,99575.58
2023-02-26T04:34:49.588Z,99575.27
2023-02-26T04:37:19.015Z,99579.13
2023-02-26T04:39:47.545Z,99591.09
2023-02-26T04:42:16.496Z,99583.11
2023-02-26T04:44:45.591Z,99603.66
2023-02-26T04:47:15.076Z,99597.67
2023-02-26T04:49:44.291Z,99586.98
2023-02-26T04:52:13.917Z,99581.38
2023-02-26T04:54:42.796Z,99578.16
2023-02-26T04:57:11.996Z,99578.48
2023-02-26T04:59:41.088Z,99585.79
2023-02-26T05:02:10.800Z,99591.27
2023-02-26T05:04:41.041Z,99591.77
2023-02-26T05:07:10.020Z,99590.38
2023-02-26T05:09:38.806Z,99597.67
2023-02-26T05:12:07.501Z,99599.90
2023-02-26T05:14:36.491Z,99603.27
2023-02-26T05:17:05.303Z,99601.98
2023-02-26T05:19:34.175Z,99595.83
2023-02-26T05:22:03.068Z,99587.45
2023-02-26T05:24:31.675Z,99583.38
2023-02-26T05:27:00.549Z,99589.23
2023-02-26T05:29:29.330Z,99594.14
2023-02-26T05:31:58.589Z,99591.36
2023-02-26T05:34:27.314Z,99598.83
2023-02-26T05:36:56.001Z,99603.66
2023-02-26T05:39:24.486Z,99602.50
2023-02-26T05:41:55.732Z,99597.95
2023-02-26T05:44:24.519Z,99602.64
2023-02-26T05:46:53.094Z,99611.28
2023-02-26T05:49:22.290Z,99609.77
2023-02-26T05:51:51.125Z,99614.36
2023-02-26T05:54:19.676Z,99613.90
2023-02-26T05:56:48.368Z,99619.81
2023-02-26T05:59:17.360Z,99622.61
2023-02-26T06:01:46.015Z,99620.39
2023-02-26T06:04:14.729Z,99617.45
2023-02-26T06:06:43.825Z,99611.81
2023-02-26T06:09:12.484Z,99611.11
2023-02-26T06:11:41.200Z,99612.92
2023-02-26T06:14:10.093Z,99616.38
2023-02-26T06:16:38.784Z,99621.02
2023-02-26T06:19:07.608Z,99628.23
2023-02-26T06:21:36.661Z,99629.72
2023-02-26T06:24:05.699Z,99628.90
2023-02-26T06:26:34.508Z,99631.58
2023-02-26T06:29:03.857Z,99635.41
2023-02-26T06:31:32.458Z,99643.37
2023-02-26T06:34:01.536Z,99650.52
2023-02-26T06:36:30.228Z,99645.08
2023-02-26T06:38:58.808Z,99643.95
2023-02-26T06:41:27.563Z,99650.02
2023-02-26T06:43:56.391Z,99658.55
2023-02-26T06:46:25.074Z,99655.42
2023-02-26T06:48:53.974Z,99660.59
2023-02-26T06:51:22.862Z,99657.91
2023-02-26T06:53:51.650Z,99662.86
2023-02-26T06:56:21.343Z,99667.01
2023-02-26T06:58:51.219Z,99670.08
2023-02-26T07:01:20.125Z,99671.17
2023-02-26T07:03:48.754Z,99673.15
2023-02-26T07:06:27.322Z,99677.90
2023-02-26T07:08:56.861Z,99677.36
2023-02-26T07:11:25.724Z,99675.63
2023-02-26T07:13:55.378Z,99681.16
2023-02-26T07:16:24.437Z,99682.70
2023-02-26T07:18:55.005Z,99683.50
2023-02-26T07:21:23.590Z,99687.49
2023-02-26T07:23:52.482Z,99691.06
2023-02-26T07:26:21.783Z,99688.29
2023-02-26T07:28:50.477Z,99693.94
2023-02-26T07:31:19.354Z,99695.00
2023-02-26T07:33:48.256Z,99693.17
2023-02-26T07:36:17.172Z,99705.90
2023-02-26T07:38:45.836Z,99699.33
2023-02-26T07:41:15.033Z,99704.99
2023-02-26T07:43:43.719Z,99703.59
2023-02-26T07:46:12.520Z,99707.73
2023-02-26T07:48:41.705Z,99706.81
2023-02-26T07:51:11.420Z,99700.17
2023-02-26T07:53:40.001Z,99700.76
2023-02-26T07:56:08.587Z,99695.91
2023-02-26T07:58:37.415Z,99698.05
2023-02-26T08:01:07.425Z,99700.89
2023-02-26T08:03:36.147Z,99695.45
2023-02-26T08:06:05.692Z,99696.94
2023-02-26T08:08:35.095Z,99697.91
2023-02-26T08:11:03.884Z,99701.09
2023-02-26T08:13:32.367Z,99702.69
2023-02-26T08:16:01.072Z,99704.56
2023-02-26T08:18:29.944Z,99707.42
2023-02-26T08:20:58.418Z,99705.42
2023-02-26T08:23:27.421Z,99703.23
2023-02-26T08:26:10.653Z,99708.58
2023-02-26T08:28:39.540Z,99711.42
2023-02-26T08:31:08.442Z,99706.55
2023-02-26T08:33:37.452Z,99705.43
2023-02-26T08:36:06.798Z,99703.25
2023-02-26T08:38:35.418Z,99692.70
2023-02-26T08:41:04.514Z,99693.55
2023-02-26T08:43:33.181Z,99692.48
2023-02-26T08:46:01.891Z,99690.73
2023-02-26T08:48:30.557Z,99692.94
2023-02-26T08:50:59.674Z,99694.42
2023-02-26T08:53:28.358Z,99693.84
2023-02-26T08:55:56.966Z,99692.75
2023-02-26T08:58:25.850Z,99697.00
2023-02-26T09:00:54.529Z,99693.71
2023-02-26T09:03:23.022Z,99702.41
2023-02-26T09:05:52.318Z,99703.35
2023-02-26T09:08:21.542Z,99702.02
2023-02-26T09:10:50.111Z,99698.95
2023-02-26T09:13:18.995Z,99693.35
2023-02-26T09:15:49.865Z,99696.89
2023-02-26T09:18:18.527Z,99697.29
2023-02-26T09:20:47.223Z,99702.39
2023-02-26T09:23:16.399Z,99704.77
2023-02-26T09:25:45.092Z,99700.46
2023-02-26T09:28:13.922Z,99698.73
2023-02-26T09:30:42.631Z,99696.77
2023-02-26T09:33:11.477Z,99691.16
2023-02-26T09:35:40.453Z,99686.98
2023-02-26T09:38:09.095Z,99686.94
2023-02-26T09:41:08.261Z,99690.50
2023-02-26T09:43:36.826Z,99685.13
2023-02-26T09:46:22.104Z,99676.48
2023-02-26T09:48:54.038Z,99677.62
2023-02-26T09:51:23.618Z,99678.27
2023-02-26T09:53:52.977Z,99675.02
2023-02-26T09:56:25.648Z,99683.71
2023-02-26T09:58:55.783Z,99681.93
2023-02-26T10:01:53.714Z,99677.89
2023-02-26T10:04:25.784Z,99675.42
2023-02-26T10:07:10.507Z,99677.00
2023-02-26T10:10:05.503Z,99677.04
2023-02-26T10:12:37.184Z,99674.41
2023-02-26T10:15:40.681Z,99679.86
2023-02-26T10:18:21.631Z,99673.17
2023-02-26T10:20:50.878Z,99669.43
2023-02-26T10:23:38.781Z,99662.71
2023-02-26T10:26:25.678Z,99659.91
2023-02-26T10:28:54.779Z,99661.84
2023-02-26T10:31:51.788Z,99658.54
2023-02-26T10:34:59.592Z,99654.66
2023-02-26T10:37:28.418Z,99659.27
2023-02-26T10:40:10.109Z,99654.67
2023-02-26T10:43:00.840Z,99661.87
2023-02-26T10:45:38.274Z,99657.29
2023-02-26T10:48:18.979Z,99654.57
2023-02-26T10:50:58.373Z,99650.80
2023-02-26T10:53:28.967Z,99654.60
2023-02-26T10:56:03.470Z,99642.14
2023-02-26T10:58:32.570Z,99641.70
2023-02-26T11:01:01.486Z,99645.05
2023-02-26T11:03:33.096Z,99638.68
2023-02-26T11:06:04.021Z,99649.91
2023-02-26T11:08:44.329Z,99645.91
2023-02-26T11:11:53.455Z,99647.11
2023-02-26T11:14:25.454Z,99630.00
2023-02-26T11:17:02.758Z,99638.45
2023-02-26T11:19:36.553Z,99653.98
2023-02-26T11:22:08.175Z,99641.29
2023-02-26T11:24:49.232Z,99654.89
2023-02-26T11:27:27.155Z,99642.41
2023-02-26T11:30:04.650Z,99642.48
2023-02-26T11:32:37.001Z,99635.84
2023-02-26T11:35:09.197Z,99632.36
2023-02-26T11:37:40.897Z,99632.75
2023-02-26T11:40:25.207Z,99623.61
2023-02-26T11:42:58.715Z,99632.33
2023-02-26T11:45:27.494Z,99634.12
2023-02-26T11:48:02.964Z,99637.44
2023-02-26T11:50:39.099Z,99636.91
2023-02-26T11:53:17.759Z,99631.89
2023-02-26T11:55:52.008Z,99632.14
2023-02-26T11:58:25.538Z,99641.48
2023-02-26T12:00:58.378Z,99642.23
2023-02-26T12:03:30.029Z,99630.45
2023-02-26T12:06:00.812Z,99629.50
2023-02-26T12:08:39.512Z,99633.96
2023-02-26T12:11:18.875Z,99635.71
2023-02-26T12:14:29.152Z,99643.89
2023-02-26T12:17:10.185Z,99637.08
2023-02-26T12:19:54.978Z,99643.59
2023-02-26T12:22:41.913Z,99634.55
2023-02-26T12:25:27.368Z,99637.17
2023-02-26T12:28:05.181Z,99649.86
2023-02-26T12:30:53.727Z,99637.70
2023-02-26T12:33:45.038Z,99645.93
2023-02-26T12:36:36.323Z,99652.42
2023-02-26T12:39:33.427Z,99651.47
2023-02-26T12:42:11.471Z,99655.05
2023-02-26T12:44:51.757Z,99654.05
2023-02-26T12:47:57.675Z,99659.23
2023-02-26T12:50:35.754Z,99660.61
2023-02-26T12:53:46.302Z,99666.60
2023-02-26T12:56:21.466Z,99670.04
2023-02-26T12:59:21.283Z,99668.66
2023-02-26T13:02:16.079Z,99676.29
2023-02-26T13:05:23.065Z,99675.33
2023-02-26T13:08:16.809Z,99665.45
2023-02-26T13:11:24.221Z,99665.04
2023-02-26T13:14:03.446Z,99661.89
2023-02-26T13:16:47.555Z,99664.86
2023-02-26T13:19:24.058Z,99673.86
2023-02-26T13:22:35.996Z,99662.23
2023-02-26T13:25:17.292Z,99664.17
2023-02-26T13:27:47.874Z,99667.26
2023-02-26T13:30:40.224Z,99681.29
2023-02-26T13:33:17.748Z,99689.80
2023-02-26T13:35:49.055Z,99682.84
2023-02-26T13:38:26.999Z,99702.25
2023-02-26T13:41:20.465Z,99694.17
2023-02-26T13:44:02.593Z,99690.42
2023-02-26T13:46:52.566Z,99686.41
2023-02-26T13:49:36.091Z,99696.98
2023-02-26T13:52:04.981Z,99697.89
2023-02-26T13:54:46.774Z,99703.30
2023-02-26T13:57:21.400Z,99700.48
2023-02-26T14:00:11.697Z,99699.77
2023-02-26T14:02:51.062Z,99690.81
2023-02-26T14:05:34.099Z,99696.69
2023-02-26T14:08:02.745Z,99703.16
2023-02-26T14:10:44.913Z,99701.98
2023-02-26T14:13:23.030Z,99701.25
2023-02-26T14:16:13.908Z,99706.28
2023-02-26T14:18:49.096Z,99708.73
2023-02-26T14:21:27.586Z,99717.35
2023-02-26T14:24:22.618Z,99721.15
2023-02-26T14:27:25.511Z,99723.53
2023-02-26T14:30:00.612Z,99722.60
2023-02-26T14:32:50.759Z,99730.55
2023-02-26T14:35:29.225Z,99724.83
2023-02-26T14:38:03.371Z,99728.60
2023-02-26T14:40:43.112Z,99723.31
2023-02-26T14:43:21.044Z,99726.58
2023-02-26T14:45:50.846Z,99736.27
2023-02-26T14:48:25.392Z,99747.18
2023-02-26T14:51:02.859Z,99750.07
2023-02-26T14:53:43.730Z,99746.16
2023-02-26T14:56:12.707Z,99745.52
2023-02-26T14:59:05.779Z,99747.95
2023-02-26T15:01:45.779Z,99745.27
2023-02-26T15:04:37.653Z,99746.44
2023-02-26T15:07:37.197Z,99755.10
2023-02-26T15:10:27.272Z,99759.27
2023-02-26T15:13:08.104Z,99772.05
2023-02-26T15:15:58.774Z,99776.02
2023-02-26T15:18:36.340Z,99790.89
2023-02-26T15:21:22.746Z,99795.33
2023-02-26T15:23:54.820Z,99794.66
2023-02-26T15:26:42.845Z,99795.59
2023-02-26T15:29:14.480Z,99799.00
2023-02-26T15:31:53.249Z,99796.13
2023-02-26T15:34:22.963Z,99800.14
2023-02-26T15:36:53.601Z,99806.02
2023-02-26T15:39:24.487Z,99809.74
2023-02-26T15:41:55.518Z,99823.20
2023-02-26T15:44:34.180Z,99820.70
2023-02-26T15:47:05.277Z,99826.70
2023-02-26T15:49:38.414Z,99828.71
2023-02-26T15:52:09.380Z,99833.77
2023-02-26T15:54:43.613Z,99829.27
2023-02-26T15:57:14.176Z,99831.94
2023-02-26T15:59:48.891Z,99833.20
2023-02-26T16:02:21.653Z,99836.82
2023-02-26T16:04:50.370Z,99839.20
2023-02-26T16:07:19.909Z,99841.05
2023-02-26T16:09:52.168Z,99845.90
2023-02-26T16:12:30.491Z,99851.83
2023-02-26T16:15:05.204Z,99859.09
2023-02-26T16:17:39.639Z,99865.46
2023-02-26T16:20:16.893Z,99872.78
2023-02-26T16:22:51.271Z,99885.57
2023-02-26T16:25:26.841Z,99897.69
2023-02-26T16:28:02.087Z,99902.11
2023-02-26T16:30:43.037Z,99908.55
2023-02-26T16:33:15.369Z,99918.79
2023-02-26T16:35:48.043Z,99933.16
2023-02-26T16:38:26.411Z,99941.19
2023-02-26T16:41:06.938Z,99950.55
2023-02-26T16:43:57.906Z,99958.02
2023-02-26T16:46:45.492Z,99964.64
2023-02-26T16:49:20.619Z,99968.57
2023-02-26T16:51:50.428Z,99966.81
2023-02-26T16:54:27.234Z,99974.09
2023-02-26T16:57:19.531Z,99985.10
2023-02-26T16:59:54.258Z,99996.40
2023-02-26T17:02:26.800Z,100005.77
2023-02-26T17:05:01.683Z,100011.43
2023-02-26T17:07:34.277Z,100013.27
2023-02-26T17:10:17.186Z,100026.80
2023-02-26T17:12:49.556Z,100034.09
2023-02-26T17:15:28.995Z,100032.48
2023-02-26T17:17:58.398Z,100028.74
2023-02-26T17:20:29.461Z,100035.59
2023-02-26T17:23:00.246Z,100040.70
2023-02-26T17:25:34.981Z,100048.69
2023-02-26T17:28:04.387Z,100057.87
2023-02-26T17:30:33.966Z,100061.58
2023-02-26T17:33:05.062Z,100076.08
2023-02-26T17:35:34.362Z,100083.53
2023-02-26T17:38:04.072Z,100087.14
2023-02-26T17:40:39.315Z,100085.77
2023-02-26T17:43:10.149Z,100087.02
2023-02-26T17:45:40.936Z,100090.54
2023-02-26T17:48:14.001Z,100091.39
2023-02-26T17:50:51.267Z,100107.27
2023-02-26T17:53:22.325Z,100110.17
2023-02-26T17:55:53.677Z,100112.30
2023-02-26T17:58:41.093Z,100106.40
2023-02-26T18:01:10.810Z,100103.76
2023-02-26T18:03:40.348Z,100110.11
2023-02-26T18:06:12.238Z,100118.42
2023-02-26T18:08:41.162Z,100127.80
2023-02-26T18:11:12.255Z,100128.74
2023-02-26T18:13:41.405Z,100131.52
2023-02-26T18:16:18.901Z,100133.77
2023-02-26T18:18:48.481Z,100128.52
2023-02-26T18:21:17.499Z,100132.83
2023-02-26T18:23:47.420Z,100138.79
2023-02-26T18:26:19.763Z,100143.98
2023-02-26T18:28:50.128Z,100144.98
2023-02-26T18:31:20.115Z,100143.73
2023-02-26T18:33:49.366Z,100148.39
2023-02-26T18:36:34.512Z,100159.66
2023-02-26T18:39:11.590Z,100164.71
2023-02-26T18:41:40.480Z,100168.25
2023-02-26T18:44:09.273Z,100175.78
2023-02-26T18:46:40.551Z,100171.30
2023-02-26T18:49:18.629Z,100174.04
2023-02-26T18:51:48.128Z,100174.34
2023-02-26T18:54:17.121Z,100173.64
2023-02-26T18:56:47.390Z,100177.85
2023-02-26T18:59:16.031Z,100187.88
2023-02-26T19:01:45.185Z,100194.27
2023-02-26T19:04:14.531Z,100195.68
2023-02-26T19:06:43.499Z,100199.04
2023-02-26T19:09:12.223Z,100207.42
2023-02-26T19:11:42.686Z,100208.19
2023-02-26T19:14:12.311Z,100212.42
2023-02-26T19:16:43.932Z,100214.02
2023-02-26T19:19:12.939Z,100212.73
2023-02-26T19:21:41.990Z,100212.20
2023-02-26T19:24:12.734Z,100222.14
2023-02-26T19:26:42.812Z,100224.84
2023-02-26T19:29:17.358Z,100230.83
2023-02-26T19:31:47.248Z,100228.13
2023-02-26T19:34:16.181Z,100220.89
2023-02-26T19:36:48.570Z,100222.77
2023-02-26T19:39:18.978Z,100230.41
2023-02-26T19:41:49.510Z,100239.13
2023-02-26T19:44:18.721Z,100244.98
2023-02-26T19:46:47.800Z,100248.88
2023-02-26T19:49:17.534Z,100250.08
2023-02-26T19:51:46.734Z,100253.17
2023-02-26T19:54:16.120Z,100250.99
2023-02-26T19:56:45.873Z,100249.67
2023-02-26T19:59:14.515Z,100253.20
2023-02-26T20:01:44.150Z,100263.28
2023-02-26T20:04:13.018Z,100269.36
2023-02-26T20:06:41.822Z,100263.13
2023-02-26T20:09:12.330Z,100270.05
2023-02-26T20:11:41.548Z,100266.77
2023-02-26T20:14:10.318Z,100278.14
2023-02-26T20:16:39.413Z,100287.62
2023-02-26T20:19:08.712Z,100301.39
2023-02-26T20:21:37.502Z,100307.55
2023-02-26T20:24:06.490Z,100299.60
2023-02-26T20:26:35.900Z,100302.77
2023-02-26T20:29:04.911Z,100307.03
2023-02-26T20:31:33.489Z,100306.27
2023-02-26T20:34:02.777Z,100311.31
2023-02-26T20:36:31.464Z,100311.52
2023-02-26T20:39:03.239Z,100311.98
2023-02-26T20:41:32.216Z,100315.33
2023-02-26T20:44:00.983Z,100328.13
2023-02-26T20:46:31.096Z,100329.42
2023-02-26T20:49:00.222Z,100335.91
2023-02-26T20:51:28.997Z,100338.16
2023-02-26T20:53:58.043Z,100325.59
2023-02-26T20:56:27.200Z,100321.31
2023-02-26T20:58:55.789Z,100327.96
2023-02-26T21:01:24.752Z,100330.33
2023-02-26T21:03:54.450Z,100332.60
2023-02-26T21:06:23.279Z,100334.38
2023-02-26T21:08:51.965Z,100329.25
2023-02-26T21:11:21.329Z,100330.93
2023-02-26T21:13:49.950Z,100331.51
2023-02-26T21:16:18.565Z,100332.88
2023-02-26T21:18:47.835Z,100338.20
2023-02-26T21:21:16.784Z,100338.58
2023-02-26T21:23:45.519Z,100342.96
2023-02-26T21:26:14.825Z,100340.12
2023-02-26T21:28:48.506Z,100345.67
2023-02-26T21:31:19.781Z,100349.25
2023-02-26T21:33:49.282Z,100350.36
2023-02-26T21:36:17.858Z,100355.48
2023-02-26T21:38:46.956Z,100363.87
2023-02-26T21:41:15.844Z,100370.27
2023-02-26T21:43:44.659Z,100372.16
2023-02-26T21:46:13.912Z,100370.98
2023-02-26T21:48:42.463Z,100374.10
2023-02-26T21:51:10.999Z,100373.98
2023-02-26T21:53:39.993Z,100376.71
2023-02-26T21:56:08.892Z,100376.39
2023-02-26T21:58:37.496Z,100375.98
2023-02-26T22:01:06.407Z,100384.54
2023-02-26T22:03:35.043Z,100391.66
2023-02-26T22:06:04.150Z,100394.73
2023-02-26T22:08:33.742Z,100396.71
2023-02-26T22:11:02.368Z,100400.50
2023-02-26T22:13:30.817Z,100404.73
2023-02-26T22:16:00.014Z,100406.34
2023-02-26T22:18:29.311Z,100408.88
2023-02-26T22:20:57.795Z,100408.22
2023-02-26T22:23:26.795Z,100415.70
2023-02-26T22:25:55.684Z,100417.06
2023-02-26T22:28:24.166Z,100422.56
2023-02-26T22:30:53.193Z,100428.86
2023-02-26T22:33:23.077Z,100437.72
2023-02-26T22:35:52.063Z,100447.16
2023-02-26T22:38:20.959Z,100442.50
2023-02-26T22:40:49.548Z,100447.61
2023-02-26T22:43:18.663Z,100446.45
2023-02-26T22:45:48.849Z,100440.95
2023-02-26T22:48:17.967Z,100447.08
2023-02-26T22:50:46.655Z,100441.02
2023-02-26T22:53:15.637Z,100438.69
2023-02-26T22:55:44.125Z,100434.80
2023-02-26T22:58:12.907Z,100431.93
2023-02-26T23:00:42.497Z,100433.02
2023-02-26T23:03:11.105Z,100442.86
2023-02-26T23:05:39.686Z,100441.55
2023-02-26T23:08:08.785Z,100447.65
2023-02-26T23:10:37.576Z,100447.45
2023-02-26T23:13:06.059Z,100441.14
2023-02-26T23:15:35.189Z,100441.31
2023-02-26T23:18:04.147Z,100438.89
2023-02-26T23:20:32.933Z,100443.08
2023-02-26T23:23:02.443Z,100445.50
2023-02-26T23:25:31.227Z,100447.99
2023-02-26T23:28:00.036Z,100454.96
2023-02-26T23:30:29.521Z,100457.88
2023-02-26T23:32:58.108Z,100456.85
2023-02-26T23:35:27.100Z,100455.98
2023-02-26T23:37:55.887Z,100457.42
2023-02-26T23:40:24.456Z,100464.84
2023-02-26T23:42:53.672Z,100465.34
2023-02-26T23:45:23.444Z,100459.54
2023-02-26T23:47:51.878Z,100462.84
2023-02-26T23:50:20.877Z,100471.42
2023-02-26T23:52:49.843Z,100469.10
2023-02-26T23:55:18.733Z,100460.29
2023-02-26T23:57:47.217Z,100460.05
